createdAt,value
2016-12-14T00:00:36.441Z,22.59
2016-12-14T00:01:39.890Z,22.6
2016-12-14T00:02:43.332Z,22.6
2016-12-14T00:03:46.784Z,22.59
2016-12-14T00:04:50.233Z,22.65
2016-12-14T00:05:53.687Z,22.63
2016-12-14T00:06:57.138Z,22.59
2016-12-14T00:08:00.593Z,22.6
2016-12-14T00:09:04.039Z,22.54
2016-12-14T00:10:07.488Z,22.54
2016-12-14T00:11:10.930Z,22.57
2016-12-14T00:12:14.383Z,22.63
2016-12-14T00:13:17.828Z,22.59
2016-12-14T00:14:21.275Z,22.55
2016-12-14T00:15:24.723Z,22.62
2016-12-14T00:16:28.166Z,22.53
2016-12-14T00:17:31.622Z,22.53
2016-12-14T00:18:35.064Z,22.51
2016-12-14T00:19:38.517Z,22.57
2016-12-14T00:20:41.975Z,22.62
2016-12-14T00:21:45.426Z,22.54
2016-12-14T00:22:48.879Z,22.59
2016-12-14T00:23:52.345Z,22.6
2016-12-14T00:24:55.788Z,22.54
2016-12-14T00:25:59.240Z,22.57
2016-12-14T00:27:02.699Z,22.6
2016-12-14T00:28:06.149Z,22.55
2016-12-14T00:29:09.603Z,22.57
2016-12-14T00:30:13.058Z,22.55
2016-12-14T00:31:16.511Z,22.53
2016-12-14T00:32:19.964Z,22.51
2016-12-14T00:33:23.418Z,22.63
2016-12-14T00:34:26.872Z,22.57
2016-12-14T00:35:30.320Z,22.51
2016-12-14T00:36:33.769Z,22.51
2016-12-14T00:37:37.212Z,22.51
2016-12-14T00:38:40.665Z,22.51
2016-12-14T00:39:44.109Z,22.5
2016-12-14T00:40:47.568Z,22.55
2016-12-14T00:41:51.023Z,22.48
2016-12-14T00:42:54.470Z,22.55
2016-12-14T00:43:57.923Z,22.54
2016-12-14T00:45:01.378Z,22.57
2016-12-14T00:46:04.832Z,22.51
2016-12-14T00:47:08.285Z,22.53
2016-12-14T00:48:11.742Z,22.53
2016-12-14T00:49:15.193Z,22.55
2016-12-14T00:50:18.646Z,22.53
2016-12-14T00:51:22.101Z,22.57
2016-12-14T00:52:25.555Z,22.5
2016-12-14T00:53:29.009Z,22.57
2016-12-14T00:54:32.453Z,22.51
2016-12-14T00:55:35.894Z,22.53
2016-12-14T00:56:39.354Z,22.55
2016-12-14T00:57:42.810Z,22.55
2016-12-14T00:58:46.252Z,22.55
2016-12-14T00:59:49.711Z,22.5
2016-12-14T01:00:53.154Z,22.55
2016-12-14T01:01:56.606Z,22.55
2016-12-14T01:03:00.060Z,22.5
2016-12-14T01:04:03.514Z,22.55
2016-12-14T01:05:06.967Z,22.59
2016-12-14T01:06:10.422Z,22.55
2016-12-14T01:07:13.875Z,22.55
2016-12-14T01:08:17.329Z,22.47
2016-12-14T01:09:20.787Z,22.54
2016-12-14T01:10:24.237Z,22.59
2016-12-14T01:11:27.684Z,22.55
2016-12-14T01:12:31.133Z,22.51
2016-12-14T01:13:34.576Z,22.55
2016-12-14T01:14:38.030Z,22.55
2016-12-14T01:15:41.474Z,22.55
2016-12-14T01:16:44.933Z,22.54
2016-12-14T01:17:48.399Z,22.48
2016-12-14T01:18:51.836Z,22.43
2016-12-14T01:19:55.288Z,22.59
2016-12-14T01:20:58.745Z,22.47
2016-12-14T01:22:02.197Z,22.54
2016-12-14T01:23:05.649Z,22.51
2016-12-14T01:24:09.105Z,22.48
2016-12-14T01:25:12.557Z,22.48
2016-12-14T01:26:16.011Z,22.51
2016-12-14T01:27:19.466Z,22.59
2016-12-14T01:28:22.919Z,22.43
2016-12-14T01:29:26.372Z,22.48
2016-12-14T01:30:29.828Z,22.55
2016-12-14T01:31:33.280Z,22.5
2016-12-14T01:32:36.733Z,22.47
2016-12-14T01:33:40.189Z,22.5
2016-12-14T01:34:43.642Z,22.53
2016-12-14T01:35:47.098Z,22.51
2016-12-14T01:36:50.551Z,22.5
2016-12-14T01:37:54.004Z,22.51
2016-12-14T01:38:57.455Z,22.43
2016-12-14T01:40:00.912Z,22.44
2016-12-14T01:41:04.365Z,22.53
2016-12-14T01:42:07.819Z,22.48
2016-12-14T01:43:11.273Z,22.54
2016-12-14T01:44:14.727Z,22.51
2016-12-14T01:45:18.173Z,22.41
2016-12-14T01:46:21.624Z,22.54
2016-12-14T01:47:25.065Z,22.48
2016-12-14T01:48:28.518Z,22.48
2016-12-14T01:49:31.963Z,22.48
2016-12-14T01:50:35.409Z,22.51
2016-12-14T01:51:38.858Z,22.51
2016-12-14T01:52:42.301Z,22.5
2016-12-14T01:53:45.754Z,22.47
2016-12-14T01:54:49.199Z,22.45
2016-12-14T01:55:52.651Z,22.51
2016-12-14T01:56:56.106Z,22.51
2016-12-14T01:57:59.559Z,22.51
2016-12-14T01:59:03.012Z,22.48
2016-12-14T02:00:06.467Z,22.48
2016-12-14T02:01:09.921Z,22.45
2016-12-14T02:02:13.374Z,22.51
2016-12-14T02:03:16.829Z,22.5
2016-12-14T02:04:20.282Z,22.53
2016-12-14T02:05:23.735Z,22.5
2016-12-14T02:06:27.189Z,22.45
2016-12-14T02:07:30.644Z,22.43
2016-12-14T02:08:34.098Z,22.48
2016-12-14T02:09:37.559Z,22.51
2016-12-14T02:10:41.006Z,22.51
2016-12-14T02:11:44.460Z,22.48
2016-12-14T02:12:47.918Z,22.5
2016-12-14T02:13:51.375Z,22.5
2016-12-14T02:14:54.826Z,22.41
2016-12-14T02:15:58.285Z,22.48
2016-12-14T02:17:01.729Z,22.5
2016-12-14T02:18:05.183Z,22.48
2016-12-14T02:19:08.640Z,22.47
2016-12-14T02:20:12.091Z,22.43
2016-12-14T02:21:15.545Z,22.41
2016-12-14T02:22:18.992Z,22.5
2016-12-14T02:23:22.453Z,22.51
2016-12-14T02:24:25.906Z,22.43
2016-12-14T02:25:29.360Z,22.44
2016-12-14T02:26:32.814Z,22.5
2016-12-14T02:27:36.267Z,22.48
2016-12-14T02:28:39.722Z,22.43
2016-12-14T02:29:43.176Z,22.5
2016-12-14T02:30:46.629Z,22.48
2016-12-14T02:31:50.085Z,22.48
2016-12-14T02:32:53.537Z,22.48
2016-12-14T02:33:56.991Z,22.48
2016-12-14T02:35:00.445Z,22.44
2016-12-14T02:36:03.900Z,22.44
2016-12-14T02:37:07.353Z,22.41
2016-12-14T02:38:10.807Z,22.44
2016-12-14T02:39:14.250Z,22.47
2016-12-14T02:40:17.707Z,22.39
2016-12-14T02:41:21.157Z,22.39
2016-12-14T02:42:24.601Z,22.45
2016-12-14T02:43:28.054Z,22.51
2016-12-14T02:44:31.497Z,22.45
2016-12-14T02:45:34.955Z,22.45
2016-12-14T02:46:38.415Z,22.43
2016-12-14T02:47:41.858Z,22.36
2016-12-14T02:48:45.311Z,22.41
2016-12-14T02:49:48.766Z,22.41
2016-12-14T02:50:52.223Z,22.51
2016-12-14T02:51:55.674Z,22.43
2016-12-14T02:52:59.131Z,22.38
2016-12-14T02:54:02.581Z,22.41
2016-12-14T02:55:06.034Z,22.45
2016-12-14T02:56:09.489Z,22.47
2016-12-14T02:57:12.943Z,22.43
2016-12-14T02:58:16.395Z,22.43
2016-12-14T02:59:19.850Z,22.38
2016-12-14T03:00:23.304Z,22.43
2016-12-14T03:01:26.758Z,22.38
2016-12-14T03:02:30.215Z,22.38
2016-12-14T03:03:33.666Z,22.38
2016-12-14T03:04:37.111Z,22.36
2016-12-14T03:05:40.560Z,22.41
2016-12-14T03:06:44.005Z,22.44
2016-12-14T03:07:47.458Z,22.43
2016-12-14T03:08:50.904Z,22.47
2016-12-14T03:09:54.355Z,22.43
2016-12-14T03:10:57.809Z,22.36
2016-12-14T03:12:01.263Z,22.41
2016-12-14T03:13:04.715Z,22.41
2016-12-14T03:14:08.171Z,22.39
2016-12-14T03:15:11.625Z,22.33
2016-12-14T03:16:15.078Z,22.38
2016-12-14T03:17:18.533Z,22.41
2016-12-14T03:18:21.987Z,22.39
2016-12-14T03:19:25.440Z,22.39
2016-12-14T03:20:28.897Z,22.43
2016-12-14T03:21:32.348Z,22.33
2016-12-14T03:22:35.802Z,22.39
2016-12-14T03:23:39.256Z,22.39
2016-12-14T03:24:42.710Z,22.36
2016-12-14T03:25:46.162Z,22.36
2016-12-14T03:26:49.618Z,22.41
2016-12-14T03:27:53.071Z,22.44
2016-12-14T03:28:56.524Z,22.32
2016-12-14T03:29:59.983Z,22.38
2016-12-14T03:31:03.432Z,22.43
2016-12-14T03:32:06.887Z,22.36
2016-12-14T03:33:10.339Z,22.39
2016-12-14T03:34:13.795Z,22.36
2016-12-14T03:35:17.246Z,22.43
2016-12-14T03:36:20.702Z,22.36
2016-12-14T03:37:24.156Z,22.38
2016-12-14T03:38:27.609Z,22.39
2016-12-14T03:39:31.066Z,22.39
2016-12-14T03:40:34.518Z,22.38
2016-12-14T03:41:37.971Z,22.38
2016-12-14T03:42:41.428Z,22.36
2016-12-14T03:43:44.879Z,22.39
2016-12-14T03:44:48.325Z,22.35
2016-12-14T03:45:51.776Z,22.33
2016-12-14T03:46:55.217Z,22.39
2016-12-14T03:47:58.672Z,22.36
2016-12-14T03:49:02.116Z,22.3
2016-12-14T03:50:05.568Z,22.32
2016-12-14T03:51:09.023Z,22.38
2016-12-14T03:52:12.476Z,22.35
2016-12-14T03:53:15.929Z,22.32
2016-12-14T03:54:19.384Z,22.36
2016-12-14T03:55:22.839Z,22.36
2016-12-14T03:56:26.285Z,22.38
2016-12-14T03:57:56.875Z,22.36
2016-12-14T03:59:00.310Z,22.32
2016-12-14T04:00:03.764Z,22.33
2016-12-14T04:01:07.210Z,22.38
2016-12-14T04:02:10.656Z,22.38
2016-12-14T04:03:14.103Z,22.33
2016-12-14T04:04:17.541Z,22.43
2016-12-14T04:05:21.000Z,22.38
2016-12-14T04:06:24.445Z,22.36
2016-12-14T04:07:27.897Z,22.41
2016-12-14T04:08:31.353Z,22.3
2016-12-14T04:09:34.807Z,22.38
2016-12-14T04:10:38.253Z,22.36
2016-12-14T04:11:41.700Z,22.32
2016-12-14T04:12:45.139Z,22.36
2016-12-14T04:13:48.597Z,22.35
2016-12-14T04:14:52.042Z,22.36
2016-12-14T04:15:55.496Z,22.36
2016-12-14T04:16:58.954Z,22.39
2016-12-14T04:18:02.404Z,22.39
2016-12-14T04:19:05.857Z,22.36
2016-12-14T04:20:09.320Z,22.35
2016-12-14T04:21:12.766Z,22.35
2016-12-14T04:22:16.219Z,22.39
2016-12-14T04:23:19.663Z,22.36
2016-12-14T04:24:23.119Z,22.36
2016-12-14T04:25:26.574Z,22.32
2016-12-14T04:26:30.022Z,22.39
2016-12-14T04:27:33.464Z,22.36
2016-12-14T04:28:36.922Z,22.36
2016-12-14T04:29:40.364Z,22.35
2016-12-14T04:30:43.822Z,22.38
2016-12-14T04:31:47.281Z,22.39
2016-12-14T04:32:50.725Z,22.32
2016-12-14T04:33:54.179Z,22.39
2016-12-14T04:34:57.621Z,22.29
2016-12-14T04:36:01.063Z,22.39
2016-12-14T04:37:04.519Z,22.39
2016-12-14T04:38:07.980Z,22.35
2016-12-14T04:39:11.418Z,22.36
2016-12-14T04:40:14.877Z,22.33
2016-12-14T04:41:18.322Z,22.35
2016-12-14T04:42:21.775Z,22.39
2016-12-14T04:43:25.231Z,22.39
2016-12-14T04:44:28.683Z,22.33
2016-12-14T04:45:32.137Z,22.33
2016-12-14T04:46:35.591Z,22.36
2016-12-14T04:47:39.046Z,22.33
2016-12-14T04:48:42.497Z,22.35
2016-12-14T04:49:45.954Z,22.36
2016-12-14T04:50:49.407Z,22.32
2016-12-14T04:51:52.854Z,22.32
2016-12-14T04:52:56.302Z,22.28
2016-12-14T04:53:59.744Z,22.33
2016-12-14T04:55:03.205Z,22.36
2016-12-14T04:56:06.644Z,22.36
2016-12-14T04:57:10.102Z,22.38
2016-12-14T04:58:13.558Z,22.35
2016-12-14T04:59:17.005Z,22.39
2016-12-14T05:00:20.450Z,22.38
2016-12-14T05:01:23.913Z,22.39
2016-12-14T05:02:27.366Z,22.36
2016-12-14T05:03:30.813Z,22.36
2016-12-14T05:04:34.259Z,22.39
2016-12-14T05:05:37.701Z,22.29
2016-12-14T05:06:41.160Z,22.38
2016-12-14T05:07:44.606Z,22.29
2016-12-14T05:08:48.059Z,22.33
2016-12-14T05:09:51.519Z,22.38
2016-12-14T05:10:54.964Z,22.32
2016-12-14T05:11:58.417Z,22.36
2016-12-14T05:13:01.871Z,22.29
2016-12-14T05:14:05.325Z,22.32
2016-12-14T05:15:08.779Z,22.36
2016-12-14T05:16:12.234Z,22.36
2016-12-14T05:17:15.688Z,22.32
2016-12-14T05:18:19.140Z,22.33
2016-12-14T05:19:22.604Z,22.3
2016-12-14T05:20:26.049Z,22.36
2016-12-14T05:21:29.496Z,22.36
2016-12-14T05:22:32.944Z,22.33
2016-12-14T05:23:36.401Z,22.38
2016-12-14T05:24:39.857Z,22.36
2016-12-14T05:25:43.305Z,22.36
2016-12-14T05:26:46.749Z,22.38
2016-12-14T05:27:50.201Z,22.38
2016-12-14T05:28:53.646Z,22.32
2016-12-14T05:29:57.099Z,22.32
2016-12-14T05:31:00.563Z,22.29
2016-12-14T05:32:04.010Z,22.29
2016-12-14T05:33:07.472Z,22.33
2016-12-14T05:34:10.925Z,22.36
2016-12-14T05:35:14.370Z,22.35
2016-12-14T05:36:17.824Z,22.35
2016-12-14T05:37:21.283Z,22.35
2016-12-14T05:38:24.732Z,22.32
2016-12-14T05:39:55.288Z,22.36
2016-12-14T05:40:58.740Z,22.28
2016-12-14T05:42:02.188Z,22.36
2016-12-14T05:43:05.635Z,22.36
2016-12-14T05:44:09.093Z,22.35
2016-12-14T05:45:12.548Z,22.33
2016-12-14T05:46:15.997Z,22.32
2016-12-14T05:47:19.442Z,22.3
2016-12-14T05:48:22.897Z,22.29
2016-12-14T05:49:26.344Z,22.3
2016-12-14T05:50:29.796Z,22.29
2016-12-14T05:51:33.256Z,22.39
2016-12-14T05:52:36.700Z,22.29
2016-12-14T05:53:40.153Z,22.29
2016-12-14T05:54:43.595Z,22.38
2016-12-14T05:55:47.039Z,22.32
2016-12-14T05:56:50.497Z,22.23
2016-12-14T05:57:54.560Z,22.36
2016-12-14T05:59:22.162Z,22.36
2016-12-14T06:00:25.606Z,22.29
2016-12-14T06:01:29.048Z,22.29
2016-12-14T06:02:32.502Z,22.35
2016-12-14T06:03:35.952Z,22.32
2016-12-14T06:04:39.388Z,22.35
2016-12-14T06:05:42.826Z,22.26
2016-12-14T06:06:46.280Z,22.32
2016-12-14T06:07:49.726Z,22.28
2016-12-14T06:08:53.162Z,22.29
2016-12-14T06:09:56.613Z,22.35
2016-12-14T06:11:00.061Z,22.32
2016-12-14T06:12:03.515Z,22.36
2016-12-14T06:13:06.968Z,22.32
2016-12-14T06:14:10.422Z,22.29
2016-12-14T06:15:13.880Z,22.29
2016-12-14T06:16:17.323Z,22.32
2016-12-14T06:17:20.785Z,22.3
2016-12-14T06:18:24.237Z,22.36
2016-12-14T06:19:27.695Z,22.25
2016-12-14T06:20:31.146Z,22.28
2016-12-14T06:21:34.606Z,22.35
2016-12-14T06:22:38.080Z,22.35
2016-12-14T06:23:41.524Z,22.29
2016-12-14T06:24:44.968Z,22.28
2016-12-14T06:25:48.426Z,22.28
2016-12-14T06:26:52.588Z,22.32
2016-12-14T06:27:56.042Z,22.32
2016-12-14T06:28:59.494Z,22.35
2016-12-14T06:30:02.948Z,22.43
2016-12-14T06:32:14.102Z,22.36
2016-12-14T06:33:17.540Z,22.29
2016-12-14T06:34:20.996Z,22.32
2016-12-14T06:35:24.449Z,22.35
2016-12-14T06:36:27.901Z,22.41
2016-12-14T06:37:31.360Z,22.3
2016-12-14T06:38:34.809Z,22.35
2016-12-14T06:39:38.257Z,22.3
2016-12-14T06:40:41.710Z,22.36
2016-12-14T06:41:45.154Z,22.33
2016-12-14T06:42:48.601Z,22.32
2016-12-14T06:43:52.082Z,22.35
2016-12-14T06:44:55.542Z,22.35
2016-12-14T06:45:58.979Z,22.32
2016-12-14T06:47:02.443Z,22.3
2016-12-14T06:48:05.898Z,22.43
2016-12-14T06:49:09.355Z,22.36
2016-12-14T06:50:12.805Z,22.35
2016-12-14T06:51:16.258Z,22.07
2016-12-14T06:52:19.713Z,21.7
2016-12-14T06:53:50.261Z,21.69
2016-12-14T06:54:53.725Z,21.77
2016-12-14T06:55:57.171Z,21.99
2016-12-14T06:57:00.632Z,22.07
2016-12-14T06:58:04.086Z,22.15
2016-12-14T06:59:07.538Z,22.22
2016-12-14T07:00:36.893Z,22.29
2016-12-14T07:01:40.342Z,22.33
2016-12-14T07:02:43.771Z,22.36
2016-12-14T07:03:47.250Z,22.35
2016-12-14T07:04:50.703Z,22.47
2016-12-14T07:05:54.169Z,22.53
2016-12-14T07:06:57.623Z,22.47
2016-12-14T07:08:01.070Z,22.53
2016-12-14T07:09:04.531Z,22.65
2016-12-14T07:10:07.982Z,22.65
2016-12-14T07:11:11.424Z,22.6
2016-12-14T07:12:14.892Z,22.62
2016-12-14T07:13:18.345Z,22.54
2016-12-14T07:14:21.791Z,22.62
2016-12-14T07:15:25.239Z,22.66
2016-12-14T07:16:28.685Z,22.6
2016-12-14T07:19:01.253Z,22.7
2016-12-14T07:20:04.703Z,22.69
2016-12-14T07:21:08.151Z,22.7
2016-12-14T07:22:12.568Z,22.6
2016-12-14T07:23:16.024Z,22.5
2016-12-14T07:24:19.479Z,22.41
2016-12-14T07:25:22.936Z,22.51
2016-12-14T07:26:26.387Z,22.47
2016-12-14T07:27:29.841Z,22.45
2016-12-14T07:28:33.288Z,22.44
2016-12-14T07:30:04.201Z,22.43
2016-12-14T07:31:07.643Z,22.36
2016-12-14T07:32:11.095Z,22.41
2016-12-14T07:33:14.556Z,22.41
2016-12-14T07:35:45.657Z,22.36
2016-12-14T07:36:49.116Z,22.38
2016-12-14T07:37:52.572Z,22.32
2016-12-14T07:38:56.020Z,22.36
2016-12-14T07:39:59.473Z,22.39
2016-12-14T07:41:02.942Z,22.38
2016-12-14T07:42:06.388Z,22.5
2016-12-14T07:43:09.840Z,22.44
2016-12-14T07:44:39.779Z,22.43
2016-12-14T07:45:43.233Z,22.32
2016-12-14T07:46:46.702Z,22.36
2016-12-14T07:47:50.140Z,22.28
2016-12-14T07:48:53.604Z,22.32
2016-12-14T07:49:57.058Z,22.35
2016-12-14T07:51:00.501Z,22.29
2016-12-14T07:52:03.963Z,22.35
2016-12-14T07:53:07.420Z,22.28
2016-12-14T07:54:10.865Z,22.33
2016-12-14T07:55:14.308Z,22.35
2016-12-14T07:56:17.758Z,22.29
2016-12-14T07:57:21.214Z,22.3
2016-12-14T07:59:52.302Z,22.32
2016-12-14T08:00:55.751Z,22.29
2016-12-14T08:01:59.204Z,22.26
2016-12-14T08:03:02.652Z,22.33
2016-12-14T08:04:06.113Z,22.33
2016-12-14T08:05:09.573Z,22.35
2016-12-14T08:06:13.043Z,22.39
2016-12-14T08:07:16.477Z,22.35
2016-12-14T08:08:19.935Z,22.36
2016-12-14T08:09:50.191Z,22.39
2016-12-14T08:10:53.647Z,22.3
2016-12-14T08:11:57.111Z,22.33
2016-12-14T08:13:27.455Z,22.35
2016-12-14T08:14:31.866Z,22.35
2016-12-14T08:15:59.143Z,22.32
2016-12-14T08:17:02.601Z,22.28
2016-12-14T08:18:06.060Z,22.36
2016-12-14T08:19:09.517Z,22.36
2016-12-14T08:20:12.973Z,22.44
2016-12-14T08:21:16.430Z,22.55
2016-12-14T08:22:19.885Z,22.55
2016-12-14T08:23:23.337Z,22.73
2016-12-14T08:24:26.804Z,22.8
2016-12-14T08:25:30.283Z,22.78
2016-12-14T08:26:33.745Z,22.8
2016-12-14T08:27:37.193Z,22.93
2016-12-14T08:28:40.636Z,22.9
2016-12-14T08:29:58.004Z,22.99
2016-12-14T08:31:01.462Z,22.98
2016-12-14T08:32:04.919Z,23
2016-12-14T08:33:08.369Z,23.09
2016-12-14T08:34:11.813Z,23.05
2016-12-14T08:35:15.291Z,23.12
2016-12-14T08:36:18.740Z,23.05
2016-12-14T08:37:22.203Z,23.12
2016-12-14T08:38:25.671Z,23.13
2016-12-14T08:39:29.118Z,23.25
2016-12-14T08:40:32.562Z,23.2
2016-12-14T08:41:36.017Z,23.18
2016-12-14T08:42:39.478Z,23.15
2016-12-14T08:43:42.926Z,23.28
2016-12-14T08:46:14.425Z,23.37
2016-12-14T08:47:17.879Z,23.32
2016-12-14T08:48:21.336Z,23.34
2016-12-14T08:49:51.282Z,23.47
2016-12-14T08:50:54.718Z,23.5
2016-12-14T08:51:58.174Z,23.48
2016-12-14T08:53:01.618Z,23.47
2016-12-14T08:54:05.087Z,23.63
2016-12-14T08:55:08.516Z,23.84
2016-12-14T08:56:11.975Z,23.77
2016-12-14T08:57:15.429Z,23.73
2016-12-14T08:58:18.874Z,23.66
2016-12-14T08:59:22.337Z,23.58
2016-12-14T09:00:25.791Z,23.61
2016-12-14T09:01:29.257Z,23.59
2016-12-14T09:02:32.713Z,23.61
2016-12-14T09:03:36.168Z,23.59
2016-12-14T09:05:06.420Z,23.59
2016-12-14T09:06:09.862Z,23.59
2016-12-14T09:07:13.331Z,23.58
2016-12-14T09:08:16.786Z,23.65
2016-12-14T09:09:20.230Z,23.73
2016-12-14T09:10:23.688Z,23.69
2016-12-14T09:11:27.133Z,23.62
2016-12-14T09:12:30.588Z,23.68
2016-12-14T09:13:34.909Z,23.73
2016-12-14T09:15:02.601Z,23.63
2016-12-14T09:16:06.063Z,23.83
2016-12-14T09:17:36.584Z,23.77
2016-12-14T09:18:40.028Z,23.66
2016-12-14T09:19:43.476Z,23.71
2016-12-14T09:22:15.189Z,23.73
2016-12-14T09:23:18.663Z,23.77
2016-12-14T09:24:22.138Z,23.74
2016-12-14T09:25:25.576Z,23.74
2016-12-14T09:26:29.033Z,23.78
2016-12-14T09:27:58.408Z,23.8
2016-12-14T09:29:01.850Z,23.8
2016-12-14T09:30:05.315Z,23.76
2016-12-14T09:31:08.757Z,23.74
2016-12-14T09:32:12.209Z,23.76
2016-12-14T09:33:15.664Z,23.8
2016-12-14T09:34:19.118Z,23.77
2016-12-14T09:35:22.568Z,23.78
2016-12-14T09:36:26.025Z,23.76
2016-12-14T09:37:29.494Z,23.81
2016-12-14T09:39:00.053Z,23.83
2016-12-14T09:40:03.501Z,23.81
2016-12-14T09:41:06.945Z,23.74
2016-12-14T09:42:10.411Z,23.78
2016-12-14T09:43:13.875Z,23.88
2016-12-14T09:44:17.321Z,23.78
2016-12-14T09:45:20.790Z,23.84
2016-12-14T09:47:51.912Z,23.95
2016-12-14T09:48:55.378Z,23.93
2016-12-14T09:49:58.829Z,24.08
2016-12-14T09:51:02.302Z,24.17
2016-12-14T09:52:05.750Z,24.16
2016-12-14T09:53:09.202Z,24.13
2016-12-14T09:54:12.655Z,24.11
2016-12-14T09:55:16.102Z,24.01
2016-12-14T09:56:19.555Z,24.02
2016-12-14T09:57:23.017Z,23.98
2016-12-14T09:58:26.465Z,24.08
2016-12-14T09:59:29.927Z,24.1
2016-12-14T10:00:33.379Z,24.06
2016-12-14T10:01:36.841Z,24.11
2016-12-14T10:03:06.597Z,24.1
2016-12-14T10:04:10.774Z,24.11
2016-12-14T10:05:14.228Z,24.1
2016-12-14T10:06:17.697Z,24.18
2016-12-14T10:07:47.048Z,24.17
2016-12-14T10:08:50.500Z,24.17
2016-12-14T10:09:53.955Z,24.13
2016-12-14T10:10:57.405Z,24.18
2016-12-14T10:12:00.873Z,24.24
2016-12-14T10:13:04.320Z,24.26
2016-12-14T10:14:08.765Z,24.28
2016-12-14T10:15:12.219Z,24.32
2016-12-14T10:16:15.678Z,24.3
2016-12-14T10:17:19.139Z,24.36
2016-12-14T10:18:22.610Z,24.33
2016-12-14T10:19:26.074Z,24.36
2016-12-14T10:20:29.528Z,24.4
2016-12-14T10:21:32.977Z,24.39
2016-12-14T10:22:36.429Z,24.38
2016-12-14T10:23:39.880Z,24.42
2016-12-14T10:24:43.364Z,24.45
2016-12-14T10:25:46.800Z,24.39
2016-12-14T10:26:50.265Z,24.45
2016-12-14T10:27:53.725Z,24.43
2016-12-14T10:28:58.162Z,24.5
2016-12-14T10:30:01.622Z,24.5
2016-12-14T10:31:32.168Z,24.55
2016-12-14T10:32:35.604Z,24.69
2016-12-14T10:33:39.065Z,24.88
2016-12-14T10:34:42.520Z,24.86
2016-12-14T10:35:45.966Z,24.81
2016-12-14T10:36:49.441Z,24.91
2016-12-14T10:38:19.375Z,25.04
2016-12-14T10:39:22.834Z,25.08
2016-12-14T10:40:26.308Z,24.95
2016-12-14T10:41:56.223Z,24.91
2016-12-14T10:43:26.749Z,24.89
2016-12-14T10:44:30.185Z,24.85
2016-12-14T10:46:00.704Z,24.74
2016-12-14T10:47:31.003Z,24.76
2016-12-14T10:48:34.461Z,24.73
2016-12-14T10:49:37.903Z,24.65
2016-12-14T10:50:41.366Z,24.68
2016-12-14T10:51:44.830Z,24.68
2016-12-14T10:52:48.869Z,24.66
2016-12-14T10:53:52.315Z,24.65
2016-12-14T10:55:23.262Z,24.68
2016-12-14T10:56:27.537Z,24.76
2016-12-14T10:57:58.037Z,24.8
2016-12-14T10:59:01.478Z,24.77
2016-12-14T11:00:04.937Z,24.63
2016-12-14T11:01:08.387Z,24.74
2016-12-14T11:02:11.845Z,24.66
2016-12-14T11:03:15.319Z,24.58
2016-12-14T11:04:18.780Z,24.63
2016-12-14T11:05:22.241Z,24.53
2016-12-14T11:06:25.694Z,24.58
2016-12-14T11:07:29.134Z,24.57
2016-12-14T11:08:59.710Z,24.51
2016-12-14T11:10:03.154Z,24.54
2016-12-14T11:11:06.604Z,24.51
2016-12-14T11:12:10.077Z,24.53
2016-12-14T11:13:47.881Z,24.61
2016-12-14T11:16:19.025Z,24.54
2016-12-14T11:17:22.484Z,24.54
2016-12-14T11:18:26.764Z,24.6
2016-12-14T11:19:54.164Z,24.6
2016-12-14T11:20:57.634Z,24.47
2016-12-14T11:22:01.087Z,24.48
2016-12-14T11:23:04.539Z,24.5
2016-12-14T11:24:07.996Z,24.6
2016-12-14T11:25:11.965Z,24.51
2016-12-14T11:26:14.909Z,24.65
2016-12-14T11:27:18.965Z,24.55
2016-12-14T11:28:46.622Z,24.58
2016-12-14T11:29:50.076Z,24.6
2016-12-14T11:30:53.518Z,24.66
2016-12-14T11:31:57.898Z,24.68
2016-12-14T11:33:25.174Z,24.63
2016-12-14T11:34:28.643Z,24.69
2016-12-14T11:35:32.107Z,24.68
2016-12-14T11:36:35.567Z,24.7
2016-12-14T11:37:39.743Z,24.7
2016-12-14T11:38:43.201Z,24.66
2016-12-14T11:39:46.620Z,24.74
2016-12-14T11:40:50.071Z,24.73
2016-12-14T11:42:20.421Z,24.76
2016-12-14T11:43:23.892Z,24.78
2016-12-14T11:44:27.339Z,24.8
2016-12-14T11:45:30.804Z,24.77
2016-12-14T11:46:34.244Z,24.81
2016-12-14T11:47:37.714Z,24.77
2016-12-14T11:48:41.151Z,24.78
2016-12-14T11:49:44.601Z,24.77
2016-12-14T11:50:48.078Z,24.76
2016-12-14T11:51:52.336Z,24.91
2016-12-14T11:52:55.820Z,24.74
2016-12-14T11:53:59.275Z,24.77
2016-12-14T11:55:02.731Z,24.81
2016-12-14T11:56:06.187Z,24.92
2016-12-14T11:57:09.640Z,24.85
2016-12-14T11:58:13.104Z,24.85
2016-12-14T11:59:16.560Z,24.84
2016-12-14T12:00:20.022Z,24.86
2016-12-14T12:01:23.484Z,24.81
2016-12-14T12:02:26.931Z,24.81
2016-12-14T12:03:30.392Z,24.89
2016-12-14T12:04:33.851Z,24.95
2016-12-14T12:05:37.307Z,24.89
2016-12-14T12:06:40.765Z,24.88
2016-12-14T12:07:44.211Z,24.8
2016-12-14T12:08:47.665Z,24.76
2016-12-14T12:09:51.133Z,24.77
2016-12-14T12:10:54.576Z,24.76
2016-12-14T12:11:58.841Z,24.84
2016-12-14T12:13:26.293Z,24.8
2016-12-14T12:14:29.719Z,24.74
2016-12-14T12:15:33.187Z,24.8
2016-12-14T12:16:36.634Z,24.74
2016-12-14T12:17:46.572Z,24.77
2016-12-14T12:18:50.041Z,24.78
2016-12-14T12:19:53.504Z,24.77
2016-12-14T12:20:57.021Z,24.76
2016-12-14T12:22:00.470Z,24.77
2016-12-14T12:23:03.928Z,24.74
2016-12-14T12:24:07.377Z,24.8
2016-12-14T12:25:10.840Z,24.77
2016-12-14T12:26:14.294Z,24.66
2016-12-14T12:27:17.739Z,24.77
2016-12-14T12:28:21.194Z,24.74
2016-12-14T12:29:24.656Z,24.84
2016-12-14T12:31:56.326Z,24.66
2016-12-14T12:32:59.789Z,24.69
2016-12-14T12:34:03.222Z,24.7
2016-12-14T12:35:06.707Z,24.69
2016-12-14T12:36:10.178Z,24.61
2016-12-14T12:37:13.623Z,24.66
2016-12-14T12:38:17.067Z,24.66
2016-12-14T12:39:20.525Z,24.7
2016-12-14T12:40:23.976Z,24.78
2016-12-14T12:41:27.435Z,24.76
2016-12-14T12:42:30.881Z,24.77
2016-12-14T12:45:01.958Z,24.74
2016-12-14T12:46:05.429Z,24.7
2016-12-14T12:47:08.861Z,24.81
2016-12-14T12:48:12.312Z,24.77
2016-12-14T12:49:15.776Z,24.77
2016-12-14T12:50:19.220Z,24.74
2016-12-14T12:51:22.674Z,24.85
2016-12-14T12:53:54.359Z,24.85
2016-12-14T12:54:57.827Z,24.81
2016-12-14T12:56:28.164Z,24.92
2016-12-14T12:57:31.621Z,24.93
2016-12-14T12:58:35.066Z,24.81
2016-12-14T12:59:38.526Z,24.85
2016-12-14T13:00:41.979Z,24.85
2016-12-14T13:01:45.457Z,24.84
2016-12-14T13:02:48.895Z,24.77
2016-12-14T13:03:53.083Z,24.8
2016-12-14T13:05:20.575Z,24.76
2016-12-14T13:06:24.040Z,24.86
2016-12-14T13:07:27.479Z,24.84
2016-12-14T13:08:30.927Z,24.81
2016-12-14T13:09:34.377Z,24.76
2016-12-14T13:10:37.839Z,24.84
2016-12-14T13:11:41.292Z,24.76
2016-12-14T13:12:44.729Z,24.89
2016-12-14T13:13:48.188Z,24.74
2016-12-14T13:14:51.632Z,24.84
2016-12-14T13:15:55.116Z,24.81
2016-12-14T13:18:26.783Z,24.77
2016-12-14T13:19:30.233Z,24.78
2016-12-14T13:20:33.692Z,24.86
2016-12-14T13:21:37.132Z,24.8
2016-12-14T13:22:40.620Z,24.8
2016-12-14T13:23:44.064Z,24.78
2016-12-14T13:24:47.503Z,24.88
2016-12-14T13:25:50.963Z,24.85
2016-12-14T13:26:54.440Z,24.8
2016-12-14T13:27:57.922Z,24.92
2016-12-14T13:29:01.384Z,24.92
2016-12-14T13:30:04.851Z,24.85
2016-12-14T13:31:08.296Z,24.92
2016-12-14T13:32:11.755Z,24.93
2016-12-14T13:33:15.210Z,24.92
2016-12-14T13:34:18.663Z,24.89
2016-12-14T13:35:22.126Z,24.92
2016-12-14T13:36:25.581Z,24.92
2016-12-14T13:37:29.041Z,24.98
2016-12-14T13:38:59.563Z,24.86
2016-12-14T13:40:03.026Z,24.89
2016-12-14T13:41:06.491Z,24.95
2016-12-14T13:42:09.929Z,25.06
2016-12-14T13:43:13.385Z,24.96
2016-12-14T13:44:16.837Z,25.1
2016-12-14T13:45:46.566Z,25.11
2016-12-14T13:46:50.013Z,25.1
2016-12-14T13:47:53.482Z,25.16
2016-12-14T13:48:56.936Z,25.08
2016-12-14T13:50:00.409Z,25.17
2016-12-14T13:51:03.865Z,25.16
2016-12-14T13:52:07.330Z,25.18
2016-12-14T13:53:10.781Z,25.18
2016-12-14T13:54:14.249Z,25.33
2016-12-14T13:55:17.714Z,25.26
2016-12-14T13:56:21.184Z,25.31
2016-12-14T13:57:24.646Z,25.23
2016-12-14T13:58:28.096Z,25.31
2016-12-14T13:59:31.546Z,25.29
2016-12-14T14:00:35.000Z,25.16
2016-12-14T14:01:38.493Z,25.07
2016-12-14T14:02:41.961Z,25.11
2016-12-14T14:03:45.435Z,24.99
2016-12-14T14:04:48.881Z,25.03
2016-12-14T14:06:18.257Z,24.99
2016-12-14T14:07:21.713Z,25.04
2016-12-14T14:08:25.163Z,25.04
2016-12-14T14:09:28.632Z,24.99
2016-12-14T14:10:32.119Z,24.99
2016-12-14T14:11:35.564Z,25.04
2016-12-14T14:12:39.016Z,25.08
2016-12-14T14:13:42.519Z,24.99
2016-12-14T14:14:45.969Z,25.1